Time;durP1;ratioP1;P1;durP2;ratioP2;P2;SDS_P1;SDS_P2;PMS_P1;PMS_P2;Temp;Humidity;BMP_temperature;BMP_pressure;BME280_temperature;BME280_humidity;BME280_pressure;Samples;Min_cycle;Max_cycle;Signal;HPM_P1;HPM_P2
2023/07/14 00:01:38;;;;;;;13.68;11.95;;;19.50;99.90;;;;;;5002573;28;20713;-70
2023/07/14 00:04:31;;;;;;;14.57;13.00;;;19.50;99.90;;;;;;5017080;28;20257;-72
2023/07/14 00:07:22;;;;;;;13.80;12.32;;;19.40;99.90;;;;;;5018709;28;20237;-72
2023/07/14 00:10:18;;;;;;;15.32;12.82;;;19.40;99.90;;;;;;5005503;28;20218;-71
2023/07/14 00:13:08;;;;;;;15.25;12.35;;;19.30;99.90;;;;;;5010748;28;20229;-72
2023/07/14 00:15:57;;;;;;;14.02;12.52;;;19.40;99.90;;;;;;5006911;28;20590;-71
2023/07/14 00:18:47;;;;;;;18.35;12.45;;;19.30;99.90;;;;;;5015632;28;20233;-72
2023/07/14 00:21:37;;;;;;;13.45;11.73;;;19.20;99.90;;;;;;5003784;28;20698;-71
2023/07/14 00:24:27;;;;;;;13.23;11.52;;;19.30;99.90;;;;;;5018140;28;20724;-71
2023/07/14 00:27:18;;;;;;;16.73;12.00;;;19.30;99.90;;;;;;5017226;28;20312;-72
2023/07/14 00:30:16;;;;;;;13.82;11.77;;;19.20;99.90;;;;;;4985650;28;20780;-72
2023/07/14 00:33:12;;;;;;;13.00;11.38;;;19.20;99.90;;;;;;5018625;28;20237;-71
2023/07/14 00:36:01;;;;;;;15.00;12.27;;;19.20;99.90;;;;;;5005917;28;20217;-70
2023/07/14 00:38:50;;;;;;;13.45;11.80;;;19.10;99.90;;;;;;5005670;28;20228;-71
2023/07/14 00:41:40;;;;;;;13.32;11.73;;;19.10;99.90;;;;;;5013774;28;20237;-72
2023/07/14 00:44:29;;;;;;;14.30;12.35;;;19.10;99.90;;;;;;5004651;28;20320;-74
2023/07/14 00:47:22;;;;;;;15.48;13.23;;;19.00;99.90;;;;;;5017095;28;20233;-72
2023/07/14 00:50:21;;;;;;;15.85;12.32;;;19.10;99.90;;;;;;5012630;28;20233;-72
2023/07/14 00:53:15;;;;;;;14.10;12.68;;;19.10;99.90;;;;;;5000798;28;20245;-71
2023/07/14 00:56:30;;;;;;;14.07;12.10;;;19.10;99.90;;;;;;5015021;28;20237;-72
2023/07/14 00:59:21;;;;;;;14.15;12.57;;;19.00;99.90;;;;;;5007696;28;20249;-72
2023/07/14 01:02:21;;;;;;;13.48;12.18;;;18.80;99.90;;;;;;4996732;28;20784;-72
2023/07/14 01:05:11;;;;;;;14.32;12.75;;;19.00;99.90;;;;;;5007909;28;20228;-71
2023/07/14 01:08:00;;;;;;;18.95;13.45;;;18.90;99.90;;;;;;5000451;28;20226;-71
2023/07/14 01:10:51;;;;;;;14.02;12.48;;;18.90;99.90;;;;;;5002523;28;20268;-72
2023/07/14 01:13:43;;;;;;;16.13;12.85;;;18.90;99.90;;;;;;4993253;28;20685;-71
2023/07/14 01:16:36;;;;;;;17.50;13.50;;;18.90;99.90;;;;;;5013739;28;20257;-70
2023/07/14 01:19:37;;;;;;;15.75;13.15;;;18.90;99.90;;;;;;5002196;28;20229;-71
2023/07/14 01:22:34;;;;;;;14.10;12.68;;;18.90;99.90;;;;;;5012352;28;20226;-72
2023/07/14 01:25:33;;;;;;;16.13;13.32;;;18.90;99.90;;;;;;5015624;28;20232;-73
2023/07/14 01:28:23;;;;;;;14.23;12.80;;;18.90;99.90;;;;;;4999733;28;20229;-72
2023/07/14 01:31:19;;;;;;;18.90;14.20;;;18.90;99.90;;;;;;5012854;28;20688;-73
2023/07/14 01:34:08;;;;;;;16.75;13.35;;;18.90;99.90;;;;;;5016824;28;20610;-71
2023/07/14 01:36:58;;;;;;;15.00;13.40;;;18.90;99.90;;;;;;4999320;28;20232;-71
2023/07/14 01:39:48;;;;;;;14.85;13.35;;;18.90;99.90;;;;;;5011385;28;20233;-72
2023/07/14 01:42:37;;;;;;;14.95;13.35;;;18.80;99.90;;;;;;5000417;28;20221;-69
2023/07/14 01:45:31;;;;;;;15.35;13.20;;;18.90;99.90;;;;;;5003648;28;20233;-69
2023/07/14 01:48:25;;;;;;;15.02;13.27;;;18.80;99.90;;;;;;5015073;28;20221;-71
2023/07/14 01:51:15;;;;;;;14.93;13.40;;;18.90;99.90;;;;;;5013014;28;20236;-71
2023/07/14 01:54:10;;;;;;;16.75;13.85;;;18.90;99.90;;;;;;5016090;28;20221;-71
2023/07/14 01:57:04;;;;;;;15.88;13.65;;;18.90;99.90;;;;;;5016292;28;20766;-70
2023/07/14 01:59:59;;;;;;;15.48;13.88;;;18.80;99.90;;;;;;4995336;28;20303;-71
2023/07/14 02:02:52;;;;;;;16.50;13.30;;;18.80;99.90;;;;;;5001642;28;20225;-69
2023/07/14 02:05:42;;;;;;;17.05;13.73;;;18.80;99.90;;;;;;5004469;28;20772;-70
2023/07/14 02:08:31;;;;;;;14.73;13.23;;;18.80;99.90;;;;;;4998805;28;20237;-71
2023/07/14 02:11:23;;;;;;;20.85;13.80;;;18.80;99.90;;;;;;5010549;28;20226;-71
2023/07/14 02:14:17;;;;;;;14.68;13.13;;;18.70;99.90;;;;;;5017781;28;20218;-71
2023/07/14 02:17:14;;;;;;;15.48;13.20;;;18.80;99.90;;;;;;5015660;28;20295;-72
2023/07/14 02:20:08;;;;;;;14.65;13.13;;;18.70;99.90;;;;;;5019143;28;20892;-70
2023/07/14 02:23:01;;;;;;;20.17;13.27;;;18.70;99.90;;;;;;5006726;28;20300;-71
2023/07/14 02:26:02;;;;;;;16.70;12.55;;;18.60;99.90;;;;;;5005314;28;20229;-70
2023/07/14 02:28:51;;;;;;;19.20;13.70;;;18.60;99.90;;;;;;5021936;28;20234;-72
2023/07/14 02:31:45;;;;;;;19.55;13.95;;;18.70;99.90;;;;;;5012591;28;20252;-70
2023/07/14 02:34:39;;;;;;;16.85;14.02;;;18.60;99.90;;;;;;5014912;28;20283;-72
2023/07/14 02:38:00;;;;;;;14.93;12.57;;;18.60;99.90;;;;;;5017756;28;20245;-72
2023/07/14 02:40:55;;;;;;;15.00;12.70;;;18.60;99.90;;;;;;4999597;28;20671;-72
2023/07/14 02:43:44;;;;;;;15.52;12.73;;;18.60;99.90;;;;;;5007401;28;20237;-71
2023/07/14 02:46:41;;;;;;;15.90;13.43;;;18.60;99.90;;;;;;5007496;28;20217;-70
2023/07/14 02:49:33;;;;;;;18.67;13.68;;;18.60;99.90;;;;;;5019511;28;20225;-71
2023/07/14 02:52:22;;;;;;;15.02;12.88;;;18.60;99.90;;;;;;5004904;28;20229;-71
2023/07/14 02:55:13;;;;;;;15.20;13.57;;;18.60;99.90;;;;;;5014555;28;20233;-71
2023/07/14 02:58:03;;;;;;;17.02;12.75;;;18.60;99.90;;;;;;5002022;28;20225;-71
2023/07/14 03:00:53;;;;;;;15.25;12.68;;;18.50;99.90;;;;;;5018026;28;20601;-71
2023/07/14 03:03:44;;;;;;;15.70;14.07;;;18.50;99.90;;;;;;5019948;28;20230;-72
2023/07/14 03:06:34;;;;;;;15.85;13.02;;;18.50;99.90;;;;;;5018383;28;20229;-72
2023/07/14 03:09:23;;;;;;;14.88;13.38;;;18.50;99.90;;;;;;5020459;28;20226;-72
2023/07/14 03:12:13;;;;;;;13.75;12.25;;;18.50;99.90;;;;;;5017193;28;20312;-71
2023/07/14 03:15:02;;;;;;;14.82;12.23;;;18.50;99.90;;;;;;5002438;28;20226;-72
2023/07/14 03:17:51;;;;;;;14.23;12.80;;;18.50;99.90;;;;;;5002252;28;20237;-74
2023/07/14 03:20:40;;;;;;;13.75;12.18;;;18.70;99.90;;;;;;5020445;28;20293;-71
2023/07/14 03:23:29;;;;;;;13.40;11.88;;;18.60;99.90;;;;;;5018241;28;20226;-72
2023/07/14 03:26:17;;;;;;;13.07;11.77;;;18.50;99.90;;;;;;5011517;28;20309;-73
2023/07/14 03:29:08;;;;;;;12.25;10.95;;;18.60;99.90;;;;;;5015583;28;20241;-71
2023/07/14 03:31:57;;;;;;;14.32;11.45;;;18.50;99.90;;;;;;5017797;28;20596;-71
2023/07/14 03:34:46;;;;;;;11.38;10.18;;;18.50;99.90;;;;;;5019917;28;20222;-72
2023/07/14 03:37:41;;;;;;;17.48;10.48;;;18.50;99.90;;;;;;5016353;28;20316;-68
2023/07/14 03:40:30;;;;;;;12.00;10.70;;;18.70;99.90;;;;;;5013325;28;20230;-68
2023/07/14 03:43:18;;;;;;;12.43;10.13;;;18.80;99.90;;;;;;5008440;28;20233;-73
2023/07/14 03:46:13;;;;;;;12.98;9.90;;;18.80;99.90;;;;;;5017606;28;20225;-71
2023/07/14 03:49:04;;;;;;;13.93;10.35;;;18.60;99.90;;;;;;5015429;28;20228;-71
2023/07/14 03:51:53;;;;;;;11.23;9.57;;;18.80;99.90;;;;;;5018555;28;20836;-71
2023/07/14 03:54:42;;;;;;;12.40;9.48;;;18.80;99.90;;;;;;5017931;28;20238;-73
2023/07/14 03:57:31;;;;;;;13.93;9.35;;;18.90;99.90;;;;;;5001928;28;20238;-72
2023/07/14 04:00:21;;;;;;;11.35;9.02;;;19.10;99.90;;;;;;5001107;28;20221;-72
2023/07/14 04:03:12;;;;;;;13.82;8.85;;;18.90;99.90;;;;;;5010296;28;20573;-71
2023/07/14 04:06:01;;;;;;;9.80;8.77;;;18.90;99.90;;;;;;5016850;28;20221;-69
2023/07/14 04:08:53;;;;;;;11.98;9.18;;;19.00;99.90;;;;;;5012125;28;20229;-71
2023/07/14 04:11:43;;;;;;;11.15;8.40;;;19.00;99.90;;;;;;5005300;28;20233;-69
2023/07/14 04:14:32;;;;;;;11.45;8.45;;;19.10;99.90;;;;;;5002140;28;20248;-72
2023/07/14 04:17:22;;;;;;;11.73;8.27;;;19.20;99.90;;;;;;5015079;28;20285;-73
2023/07/14 04:20:13;;;;;;;11.98;8.50;;;19.20;99.90;;;;;;5004725;28;20213;-72
2023/07/14 04:23:01;;;;;;;14.02;8.52;;;19.30;99.90;;;;;;5018858;28;20252;-72
2023/07/14 04:25:51;;;;;;;11.25;8.45;;;19.40;99.90;;;;;;5013790;28;20218;-72
2023/07/14 04:28:40;;;;;;;11.73;8.40;;;19.40;99.90;;;;;;4994164;28;20791;-72
2023/07/14 04:31:29;;;;;;;11.18;8.40;;;19.50;99.90;;;;;;5017598;28;20224;-72
2023/07/14 04:34:18;;;;;;;11.73;7.72;;;19.60;99.90;;;;;;5017643;28;20236;-72
2023/07/14 04:37:09;;;;;;;10.98;8.10;;;19.60;99.90;;;;;;5017557;28;20218;-71
2023/07/14 04:39:58;;;;;;;10.75;7.53;;;19.40;99.90;;;;;;5012376;28;20229;-70
2023/07/14 04:42:48;;;;;;;8.05;7.07;;;19.20;99.90;;;;;;5002386;28;20229;-73
2023/07/14 04:45:41;;;;;;;10.40;8.15;;;19.20;99.90;;;;;;5015118;28;20229;-71
2023/07/14 04:48:30;;;;;;;12.35;7.40;;;19.40;99.90;;;;;;5018511;28;20217;-73
2023/07/14 04:51:22;;;;;;;10.98;7.32;;;19.40;99.90;;;;;;5006543;28;20229;-68
2023/07/14 04:54:13;;;;;;;13.50;7.65;;;19.70;99.90;;;;;;5016507;28;20233;-72
2023/07/14 04:57:02;;;;;;;11.35;6.97;;;19.80;99.90;;;;;;4992445;28;20226;-71
2023/07/14 04:59:51;;;;;;;12.27;7.57;;;19.80;99.90;;;;;;5019997;28;20233;-71
2023/07/14 05:02:40;;;;;;;10.85;7.97;;;20.00;99.90;;;;;;5020263;28;20229;-71
2023/07/14 05:05:29;;;;;;;10.02;7.78;;;20.10;99.90;;;;;;4995780;28;20221;-72
2023/07/14 05:08:18;;;;;;;12.93;7.50;;;20.30;99.90;;;;;;5034134;28;20226;-74
2023/07/14 05:11:08;;;;;;;11.27;7.90;;;20.40;99.90;;;;;;5011845;28;20771;-72
2023/07/14 05:13:57;;;;;;;12.80;7.65;;;20.50;99.90;;;;;;5015320;28;20229;-72
2023/07/14 05:16:46;;;;;;;10.85;7.47;;;20.60;99.90;;;;;;5016251;28;20225;-74
2023/07/14 05:19:35;;;;;;;14.95;7.45;;;20.70;99.90;;;;;;4998346;28;20229;-75
2023/07/14 05:22:23;;;;;;;11.13;7.95;;;20.60;99.90;;;;;;5009145;28;20225;-72
2023/07/14 05:25:14;;;;;;;13.93;7.40;;;20.50;99.90;;;;;;5017219;28;20220;-71
2023/07/14 05:28:05;;;;;;;12.18;7.32;;;20.80;99.90;;;;;;5021913;28;20308;-71
2023/07/14 05:30:54;;;;;;;14.73;7.70;;;20.90;99.90;;;;;;5008087;28;20228;-73
2023/07/14 05:33:43;;;;;;;14.07;8.13;;;21.10;99.90;;;;;;5017251;28;20240;-72
2023/07/14 05:36:32;;;;;;;10.63;7.63;;;21.00;99.90;;;;;;5014238;28;20941;-71
2023/07/14 05:39:21;;;;;;;9.50;7.03;;;20.90;99.90;;;;;;5016920;28;20226;-72
2023/07/14 05:42:10;;;;;;;9.80;7.32;;;20.90;99.90;;;;;;5017806;28;20236;-71
2023/07/14 05:45:00;;;;;;;10.20;7.95;;;21.20;99.90;;;;;;5016326;28;20229;-73
2023/07/14 05:47:49;;;;;;;9.35;7.60;;;21.50;99.90;;;;;;5019266;28;20218;-73
2023/07/14 05:50:39;;;;;;;11.20;6.70;;;21.80;99.90;;;;;;5014802;28;20225;-73
2023/07/14 05:53:28;;;;;;;14.95;7.40;;;21.70;99.90;;;;;;5001803;28;20751;-74
2023/07/14 05:56:16;;;;;;;15.40;7.65;;;21.80;99.90;;;;;;5013803;28;20256;-72
2023/07/14 05:59:05;;;;;;;13.88;7.60;;;21.70;99.90;;;;;;5013035;28;20257;-74
2023/07/14 06:01:55;;;;;;;9.07;6.75;;;21.70;99.90;;;;;;4998742;28;21134;-73
2023/07/14 06:04:45;;;;;;;11.10;7.32;;;21.80;99.90;;;;;;5017023;28;20785;-77
2023/07/14 06:07:38;;;;;;;12.02;7.07;;;21.80;99.90;;;;;;5034324;28;20229;-72
2023/07/14 06:10:26;;;;;;;14.18;7.63;;;21.90;99.90;;;;;;5017789;28;20234;-74
2023/07/14 06:13:15;;;;;;;10.40;7.30;;;22.60;99.90;;;;;;5018401;28;20541;-73
2023/07/14 06:16:05;;;;;;;11.23;7.03;;;22.70;99.90;;;;;;5016837;28;20226;-73
2023/07/14 06:18:56;;;;;;;11.60;6.93;;;22.50;99.90;;;;;;5017808;28;20234;-72
2023/07/14 06:21:45;;;;;;;12.32;7.32;;;22.40;99.90;;;;;;5017594;28;20226;-77
2023/07/14 06:24:36;;;;;;;11.63;6.88;;;22.40;99.90;;;;;;5019540;28;20225;-73
2023/07/14 06:27:25;;;;;;;11.25;6.90;;;22.40;99.90;;;;;;5000162;28;20234;-72
2023/07/14 06:30:14;;;;;;;12.65;6.53;;;22.40;99.90;;;;;;5013462;28;20228;-75
2023/07/14 06:33:04;;;;;;;12.90;6.70;;;22.50;99.90;;;;;;5011791;28;20321;-75
2023/07/14 06:35:58;;;;;;;11.68;6.45;;;22.80;99.90;;;;;;5015139;28;20309;-74
2023/07/14 06:38:46;;;;;;;8.73;6.35;;;24.40;99.90;;;;;;5005258;28;20310;-75
2023/07/14 06:41:37;;;;;;;7.20;5.88;;;27.00;99.90;;;;;;4992668;28;20392;-74
2023/07/14 06:44:30;;;;;;;11.05;5.68;;;27.50;99.90;;;;;;4978088;28;20781;-75
2023/07/14 06:47:19;;;;;;;11.63;5.70;;;26.60;99.90;;;;;;4990701;28;20226;-74
2023/07/14 06:50:09;;;;;;;12.75;6.18;;;25.60;99.90;;;;;;4971689;28;20370;-75
2023/07/14 06:53:01;;;;;;;9.38;6.28;;;25.30;99.90;;;;;;5012727;28;20225;-75
2023/07/14 06:55:54;;;;;;;11.85;6.13;;;24.90;99.90;;;;;;4992151;28;20720;-76
2023/07/14 06:58:43;;;;;;;13.05;7.30;;;24.40;99.90;;;;;;5000088;28;20254;-77
2023/07/14 07:01:32;;;;;;;14.85;6.65;;;24.10;99.90;;;;;;5005914;28;20613;-77
2023/07/14 07:04:22;;;;;;;9.88;6.10;;;23.90;99.90;;;;;;5001851;28;20684;-73
2023/07/14 07:07:11;;;;;;;8.82;5.97;;;23.80;99.90;;;;;;5009838;28;20218;-75
2023/07/14 07:10:02;;;;;;;11.70;6.32;;;23.80;99.90;;;;;;4997813;28;20235;-78
2023/07/14 07:12:51;;;;;;;13.77;6.82;;;23.90;99.90;;;;;;4997983;28;20233;-76
2023/07/14 07:15:40;;;;;;;12.57;5.85;;;24.00;99.90;;;;;;4985418;28;20223;-76
2023/07/14 07:18:30;;;;;;;12.32;6.20;;;24.10;99.90;;;;;;4979467;28;20238;-75
2023/07/14 07:21:19;;;;;;;12.90;6.43;;;24.30;99.90;;;;;;5001993;28;20222;-74
2023/07/14 07:24:09;;;;;;;8.32;5.78;;;24.40;99.90;;;;;;4999970;28;20234;-75
2023/07/14 07:26:59;;;;;;;14.50;5.75;;;24.70;99.90;;;;;;5009822;28;20250;-74
2023/07/14 07:29:48;;;;;;;9.25;6.10;;;24.90;99.90;;;;;;4995412;28;20253;-75
2023/07/14 07:32:40;;;;;;;7.10;5.60;;;25.20;99.90;;;;;;5000408;28;20230;-76
2023/07/14 07:35:29;;;;;;;10.63;5.75;;;25.40;99.90;;;;;;5000866;28;20313;-73
2023/07/14 07:38:36;;;;;;;8.20;5.55;;;25.70;99.90;;;;;;4998132;28;20589;-75
2023/07/14 07:41:27;;;;;;;10.00;5.18;;;26.10;99.90;;;;;;4994715;28;20306;-76
2023/07/14 07:44:17;;;;;;;9.25;4.15;;;26.40;99.90;;;;;;5011172;28;20235;-76
2023/07/14 07:47:07;;;;;;;5.82;3.92;;;26.70;99.90;;;;;;4993238;28;20241;-77
2023/07/14 07:49:56;;;;;;;9.80;4.55;;;27.00;99.90;;;;;;4998137;28;20737;-74
2023/07/14 07:52:46;;;;;;;9.20;4.45;;;27.40;99.90;;;;;;4987135;28;20688;-77
2023/07/14 07:55:35;;;;;;;6.32;4.20;;;27.70;99.90;;;;;;5005743;28;22380;-77
2023/07/14 07:58:25;;;;;;;4.97;3.80;;;27.80;99.90;;;;;;4998148;28;20329;-77
2023/07/14 08:01:20;;;;;;;7.93;4.32;;;28.00;99.90;;;;;;5010423;28;20885;-78
2023/07/14 08:04:09;;;;;;;4.88;3.65;;;28.30;99.90;;;;;;4998049;28;20824;-77
2023/07/14 08:06:58;;;;;;;8.30;4.10;;;28.50;99.90;;;;;;4995385;28;20305;-77
2023/07/14 08:09:47;;;;;;;4.63;4.10;;;28.60;99.90;;;;;;4995951;28;20230;-77
2023/07/14 08:12:36;;;;;;;6.90;3.83;;;28.50;99.90;;;;;;4996264;28;20779;-73
2023/07/14 08:15:25;;;;;;;7.28;3.25;;;29.00;99.90;;;;;;4994575;28;20355;-77
2023/07/14 08:18:16;;;;;;;6.95;3.20;;;29.00;99.90;;;;;;4997164;28;20229;-77
2023/07/14 08:21:05;;;;;;;9.40;4.15;;;29.30;99.90;;;;;;4979230;28;20255;-75
2023/07/14 08:23:54;;;;;;;6.90;3.60;;;29.40;99.90;;;;;;5000344;28;20955;-75
2023/07/14 08:26:46;;;;;;;5.63;3.65;;;29.60;99.90;;;;;;4995668;28;20629;-76
2023/07/14 08:29:35;;;;;;;5.38;3.35;;;29.80;99.90;;;;;;4994933;28;20252;-76
2023/07/14 08:32:24;;;;;;;4.50;3.67;;;29.80;99.90;;;;;;5008130;28;20593;-77
2023/07/14 08:35:15;;;;;;;4.90;3.40;;;30.00;99.90;;;;;;4994943;28;20261;-75
2023/07/14 08:38:08;;;;;;;6.53;3.25;;;30.20;99.90;;;;;;4986895;28;20793;-75
2023/07/14 08:41:05;;;;;;;5.65;3.38;;;30.40;99.90;;;;;;4998067;28;20301;-75
2023/07/14 08:44:12;;;;;;;5.18;3.13;;;30.30;98.70;;;;;;5004888;28;20237;-76
2023/07/14 08:47:09;;;;;;;5.47;3.50;;;30.50;98.30;;;;;;5021614;28;20220;-76
2023/07/14 08:50:03;;;;;;;8.13;3.35;;;30.40;99.90;;;;;;4981428;28;20728;-76
2023/07/14 08:52:56;;;;;;;5.72;3.10;;;30.50;99.90;;;;;;5008246;28;20247;-76
2023/07/14 08:55:45;;;;;;;4.88;3.17;;;30.30;97.40;;;;;;5007371;28;20217;-76
2023/07/14 08:58:39;;;;;;;5.30;3.72;;;30.70;99.90;;;;;;5012174;28;20249;-76
2023/07/14 09:01:36;;;;;;;5.50;3.60;;;30.90;98.50;;;;;;5010597;28;20275;-76
2023/07/14 09:04:28;;;;;;;3.90;2.70;;;31.20;97.00;;;;;;5006538;28;20296;-76
2023/07/14 09:07:17;;;;;;;4.97;2.70;;;31.20;94.80;;;;;;5009739;28;20273;-76
2023/07/14 09:10:11;;;;;;;3.50;2.38;;;31.20;95.60;;;;;;5016402;28;20228;-75
2023/07/14 09:13:08;;;;;;;3.70;2.47;;;31.50;94.10;;;;;;5001032;28;20225;-75
2023/07/14 09:15:57;;;;;;;6.28;2.40;;;31.50;95.10;;;;;;5008038;28;20251;-75
2023/07/14 09:18:56;;;;;;;3.72;2.20;;;31.20;95.70;;;;;;5023351;28;20921;-75
2023/07/14 09:21:50;;;;;;;4.47;2.95;;;30.90;94.80;;;;;;5006949;28;20227;-75
2023/07/14 09:24:46;;;;;;;4.68;2.50;;;30.90;95.60;;;;;;5029367;28;20327;-75
2023/07/14 09:27:37;;;;;;;5.57;2.55;;;31.20;93.10;;;;;;5016591;28;20229;-75
2023/07/14 09:30:28;;;;;;;3.72;2.50;;;31.70;93.20;;;;;;5025696;28;20230;-75
2023/07/14 09:33:19;;;;;;;6.75;2.60;;;31.70;92.10;;;;;;5013828;28;20224;-75
2023/07/14 09:36:10;;;;;;;2.60;2.38;;;31.00;93.80;;;;;;5002607;28;20705;-75
2023/07/14 09:39:07;;;;;;;4.03;2.25;;;31.50;93.50;;;;;;4998239;28;20224;-75
2023/07/14 09:41:59;;;;;;;4.20;2.30;;;32.30;91.70;;;;;;5004391;28;20220;-77
2023/07/14 09:44:49;;;;;;;4.63;2.08;;;32.90;90.80;;;;;;4977986;28;1180559;-76
2023/07/14 09:47:39;;;;;;;7.60;2.28;;;33.40;85.50;;;;;;5014618;28;20229;-75
2023/07/14 09:50:33;;;;;;;2.10;1.90;;;33.60;79.20;;;;;;5018137;28;20217;-76
2023/07/14 09:53:22;;;;;;;6.15;2.17;;;33.90;81.00;;;;;;5018807;28;20221;-74
2023/07/14 09:56:16;;;;;;;3.38;2.00;;;34.20;78.30;;;;;;5020333;28;20221;-74
2023/07/14 09:59:07;;;;;;;3.67;2.28;;;35.30;76.00;;;;;;5015139;28;20221;-77
2023/07/14 10:02:00;;;;;;;4.05;2.17;;;36.10;76.00;;;;;;5033368;28;20240;-74
2023/07/14 10:04:51;;;;;;;6.70;2.85;;;34.50;78.60;;;;;;5005724;28;20243;-75
2023/07/14 10:07:43;;;;;;;3.13;2.25;;;35.80;76.40;;;;;;5004114;28;20225;-76
2023/07/14 10:10:35;;;;;;;2.80;2.00;;;36.90;75.90;;;;;;5021299;28;21026;-75
2023/07/14 10:13:27;;;;;;;3.42;2.20;;;37.40;69.10;;;;;;5016025;28;20676;-76
2023/07/14 10:16:18;;;;;;;2.67;1.88;;;37.00;63.70;;;;;;5010227;28;20824;-76
2023/07/14 10:19:14;;;;;;;4.15;1.88;;;36.90;69.50;;;;;;4999325;28;20217;-76
2023/07/14 10:22:12;;;;;;;2.72;2.25;;;37.50;64.00;;;;;;5012159;28;20231;-77
2023/07/14 10:25:03;;;;;;;4.93;1.75;;;38.30;64.50;;;;;;4990901;28;20305;-76
2023/07/14 10:27:59;;;;;;;4.50;1.73;;;39.00;62.90;;;;;;4998562;28;20716;-77
2023/07/14 10:31:06;;;;;;;2.38;1.80;;;39.60;62.00;;;;;;5017832;28;20232;-76
2023/07/14 10:34:34;;;;;;;3.38;2.33;;;40.10;56.30;;;;;;5007714;28;20224;-75
2023/07/14 10:37:27;;;;;;;5.00;2.65;;;40.30;57.40;;;;;;5032618;28;20221;-76
2023/07/14 10:40:19;;;;;;;5.63;1.60;;;40.70;56.50;;;;;;5033720;28;20221;-77
2023/07/14 10:43:17;;;;;;;2.70;1.50;;;41.20;57.90;;;;;;5005866;28;20225;-77
2023/07/14 10:46:13;;;;;;;2.60;1.55;;;41.70;53.50;;;;;;5023544;28;20631;-77
2023/07/14 10:49:07;;;;;;;3.17;1.50;;;41.70;53.60;;;;;;5010869;28;20535;-77
2023/07/14 10:52:03;;;;;;;6.35;1.50;;;42.40;52.20;;;;;;5027832;28;20280;-76
2023/07/14 10:54:57;;;;;;;3.00;2.15;;;42.60;51.90;;;;;;5020142;28;20221;-76
2023/07/14 10:57:53;;;;;;;4.38;2.78;;;42.90;51.80;;;;;;5004601;28;20229;-76
2023/07/14 11:00:47;;;;;;;2.40;1.50;;;42.70;50.00;;;;;;5015632;28;20233;-74
2023/07/14 11:03:41;;;;;;;3.83;1.55;;;43.10;50.30;;;;;;5003107;28;20639;-75
2023/07/14 11:06:34;;;;;;;3.80;1.52;;;43.10;49.40;;;;;;5018232;28;20703;-77
2023/07/14 11:09:24;;;;;;;3.55;3.25;;;43.70;46.40;;;;;;4991433;28;20253;-76
2023/07/14 11:12:23;;;;;;;7.90;1.60;;;43.70;49.10;;;;;;5016145;28;20221;-76
2023/07/14 11:15:22;;;;;;;1.92;1.50;;;44.30;46.00;;;;;;5019979;28;20304;-75
2023/07/14 11:18:25;;;;;;;4.85;1.80;;;44.30;45.30;;;;;;5015387;28;20221;-76
2023/07/14 11:21:27;;;;;;;3.60;2.10;;;44.30;46.80;;;;;;5016388;28;20225;-75
2023/07/14 11:24:20;;;;;;;4.35;2.50;;;43.50;46.00;;;;;;5002841;28;20731;-76
2023/07/14 11:27:30;;;;;;;2.40;1.35;;;43.00;44.80;;;;;;5002393;28;20217;-76
2023/07/14 11:30:24;;;;;;;1.58;1.38;;;43.10;46.30;;;;;;5004932;28;20225;-76
2023/07/14 11:33:27;;;;;;;1.70;1.60;;;44.40;45.60;;;;;;5006875;28;20228;-77
2023/07/14 11:36:21;;;;;;;2.08;1.30;;;45.40;44.20;;;;;;5015249;28;20217;-77
2023/07/14 11:39:18;;;;;;;3.72;1.80;;;45.70;44.00;;;;;;5016912;28;20302;-75
2023/07/14 11:42:20;;;;;;;1.60;1.35;;;45.80;41.60;;;;;;5000136;28;20271;-75
2023/07/14 11:45:21;;;;;;;3.28;1.63;;;46.60;43.00;;;;;;5016040;28;20231;-75
2023/07/14 11:48:37;;;;;;;1.77;1.40;;;46.60;42.60;;;;;;5002546;28;20228;-76
2023/07/14 11:51:50;;;;;;;2.92;1.70;;;46.60;41.70;;;;;;5010379;28;20209;-76
2023/07/14 11:54:44;;;;;;;8.18;1.30;;;47.70;41.60;;;;;;5008012;28;20308;-75
2023/07/14 11:57:51;;;;;;;2.00;1.60;;;48.60;40.80;;;;;;5034015;28;20708;-75
2023/07/14 12:00:42;;;;;;;3.38;2.20;;;48.00;39.30;;;;;;5011139;28;20224;-76
2023/07/14 12:03:35;;;;;;;3.53;1.58;;;48.70;41.40;;;;;;5015776;28;20240;-75
2023/07/14 12:06:46;;;;;;;3.50;1.63;;;41.90;44.20;;;;;;5013097;28;20602;-76
2023/07/14 12:09:35;;;;;;;2.40;1.60;;;41.80;46.20;;;;;;5016939;28;20231;-73
2023/07/14 12:12:24;;;;;;;4.50;3.40;;;39.80;46.20;;;;;;5006493;28;21178;-76
2023/07/14 12:15:42;;;;;;;3.47;2.00;;;41.60;45.50;;;;;;5008768;28;20221;-77
2023/07/14 12:18:34;;;;;;;3.58;1.50;;;39.30;46.80;;;;;;5016951;28;20230;-75
2023/07/14 12:21:33;;;;;;;3.17;1.90;;;36.30;50.50;;;;;;5012855;28;20278;-75
2023/07/14 12:24:29;;;;;;;2.60;1.40;;;41.10;48.30;;;;;;5000114;28;20436;-76
2023/07/14 12:27:31;;;;;;;4.82;1.67;;;45.00;45.50;;;;;;5011401;28;20239;-75
2023/07/14 12:30:23;;;;;;;3.55;1.67;;;47.10;40.80;;;;;;5018301;28;20350;-77
2023/07/14 12:33:15;;;;;;;1.35;1.25;;;49.30;39.20;;;;;;5018528;28;20286;-76
2023/07/14 12:36:05;;;;;;;2.20;1.40;;;49.40;38.60;;;;;;5000914;28;20246;-76
2023/07/14 12:38:54;;;;;;;5.70;1.48;;;47.30;41.30;;;;;;5001541;28;20371;-75
2023/07/14 12:41:47;;;;;;;3.53;1.30;;;44.80;41.70;;;;;;5014760;28;20237;-76
2023/07/14 12:44:37;;;;;;;2.05;1.50;;;39.00;44.70;;;;;;5015774;28;20450;-75
2023/07/14 12:47:26;;;;;;;3.20;1.17;;;41.70;44.40;;;;;;5008800;28;20304;-76
2023/07/14 12:50:21;;;;;;;6.28;1.92;;;43.40;41.90;;;;;;5016186;28;20232;-75
2023/07/14 12:53:13;;;;;;;4.80;1.50;;;43.10;41.60;;;;;;5024332;28;20299;-75
2023/07/14 12:56:07;;;;;;;2.47;1.30;;;42.80;43.10;;;;;;5011155;28;20225;-75
2023/07/14 12:58:56;;;;;;;2.60;1.60;;;38.50;46.10;;;;;;5016108;28;20723;-77
2023/07/14 13:01:46;;;;;;;3.67;1.58;;;35.80;47.00;;;;;;5016676;28;20235;-76
2023/07/14 13:04:35;;;;;;;1.58;1.45;;;34.30;50.80;;;;;;5010099;28;21104;-76
2023/07/14 13:07:31;;;;;;;4.25;1.75;;;33.40;50.10;;;;;;5013290;28;20224;-77
2023/07/14 13:10:24;;;;;;;3.95;1.40;;;32.30;53.50;;;;;;5010359;28;20245;-76
2023/07/14 13:13:17;;;;;;;3.38;1.50;;;31.60;54.90;;;;;;5012010;28;20352;-74
2023/07/14 13:16:07;;;;;;;2.45;1.55;;;31.20;56.10;;;;;;5012332;28;20271;-76
2023/07/14 13:18:58;;;;;;;1.40;1.25;;;30.80;56.60;;;;;;5011600;28;20229;-76
2023/07/14 13:21:49;;;;;;;6.05;1.40;;;30.60;56.80;;;;;;5009695;28;20232;-73
2023/07/14 13:24:39;;;;;;;3.25;1.30;;;30.40;58.30;;;;;;5005575;28;20241;-72
2023/07/14 13:27:29;;;;;;;2.92;1.50;;;30.00;58.50;;;;;;5013452;28;20640;-73
2023/07/14 13:30:23;;;;;;;3.50;1.30;;;30.00;58.90;;;;;;5003833;28;20307;-76
2023/07/14 13:33:15;;;;;;;4.50;1.80;;;29.90;58.20;;;;;;5013034;28;20247;-76
2023/07/14 13:36:07;;;;;;;4.35;1.63;;;29.80;59.00;;;;;;5015686;28;20691;-75
2023/07/14 13:38:57;;;;;;;5.13;2.00;;;29.70;59.90;;;;;;5024474;28;20304;-74
2023/07/14 13:41:48;;;;;;;2.90;1.70;;;29.70;59.50;;;;;;4997350;28;20233;-75
2023/07/14 13:44:46;;;;;;;2.33;1.30;;;29.50;58.80;;;;;;4998871;28;20235;-76
2023/07/14 13:47:45;;;;;;;4.30;3.90;;;29.40;58.80;;;;;;5011103;28;20969;-72
2023/07/14 13:50:34;;;;;;;1.95;1.70;;;29.10;61.00;;;;;;5016366;28;20946;-73
2023/07/14 13:53:24;;;;;;;2.75;1.40;;;29.00;61.70;;;;;;5016990;28;20229;-74
2023/07/14 13:56:16;;;;;;;5.22;1.48;;;28.80;60.80;;;;;;4998536;28;20308;-74
2023/07/14 13:59:14;;;;;;;1.45;1.30;;;28.60;59.00;;;;;;5006764;28;20716;-74
2023/07/14 14:02:24;;;;;;;1.40;1.30;;;28.50;61.10;;;;;;5012560;28;20764;-77
2023/07/14 14:05:16;;;;;;;1.55;1.30;;;28.50;60.60;;;;;;5011967;28;20213;-73
2023/07/14 14:08:06;;;;;;;3.08;1.55;;;28.50;58.60;;;;;;5016134;28;20932;-71
2023/07/14 14:10:56;;;;;;;3.08;1.60;;;28.40;59.30;;;;;;5013863;28;20684;-73
2023/07/14 14:13:45;;;;;;;3.35;1.63;;;28.30;60.70;;;;;;5014457;28;20220;-71
2023/07/14 14:16:35;;;;;;;2.25;1.60;;;28.40;61.20;;;;;;5015572;28;20268;-74
2023/07/14 14:19:25;;;;;;;3.97;1.63;;;28.40;61.70;;;;;;5008805;28;20263;-75
2023/07/14 14:22:14;;;;;;;6.10;1.70;;;28.50;64.80;;;;;;5020403;28;20260;-73
2023/07/14 14:25:11;;;;;;;4.65;1.55;;;28.40;61.70;;;;;;5007031;28;20237;-77
2023/07/14 14:28:03;;;;;;;4.05;1.77;;;28.30;61.50;;;;;;5006161;28;20228;-75
2023/07/14 14:30:55;;;;;;;3.70;1.50;;;28.20;61.50;;;;;;5033406;28;20355;-71
2023/07/14 14:33:46;;;;;;;2.35;1.42;;;28.00;62.20;;;;;;5002020;28;20307;-73
2023/07/14 14:36:35;;;;;;;2.25;1.55;;;28.00;62.90;;;;;;5011943;28;20308;-72
2023/07/14 14:39:24;;;;;;;2.00;1.50;;;28.00;62.40;;;;;;5023936;28;20229;-74
2023/07/14 14:42:16;;;;;;;2.00;1.60;;;28.00;62.60;;;;;;5013895;28;20240;-72
2023/07/14 14:45:11;;;;;;;2.40;1.70;;;28.00;61.70;;;;;;5012089;28;20228;-72
2023/07/14 14:48:01;;;;;;;4.43;1.60;;;27.90;62.20;;;;;;4999903;28;20760;-72
2023/07/14 14:50:52;;;;;;;2.00;1.45;;;27.80;62.90;;;;;;5003754;28;20256;-73